sensor_id;sensor_type;location;lat;lon;timestamp;P1;durP1;ratioP1;P2;durP2;ratioP2
59486;SDS011;45298;54.918;73.504;2023-04-15T00:01:14;6.78;;;2.50;;
59486;SDS011;45298;54.918;73.504;2023-04-15T00:03:46;5.03;;;1.67;;
59486;SDS011;45298;54.918;73.504;2023-04-15T00:06:15;10.88;;;3.25;;
59486;SDS011;45298;54.918;73.504;2023-04-15T00:08:48;20.40;;;5.38;;
59486;SDS011;45298;54.918;73.504;2023-04-15T00:11:17;15.15;;;3.47;;
59486;SDS011;45298;54.918;73.504;2023-04-15T00:13:46;11.48;;;3.22;;
59486;SDS011;45298;54.918;73.504;2023-04-15T00:16:16;50.08;;;11.15;;
59486;SDS011;45298;54.918;73.504;2023-04-15T00:18:45;10.93;;;3.40;;
59486;SDS011;45298;54.918;73.504;2023-04-15T00:21:13;3.45;;;1.83;;
59486;SDS011;45298;54.918;73.504;2023-04-15T00:23:43;3.22;;;1.50;;
59486;SDS011;45298;54.918;73.504;2023-04-15T00:26:12;4.45;;;1.40;;
59486;SDS011;45298;54.918;73.504;2023-04-15T00:28:42;4.45;;;1.30;;
59486;SDS011;45298;54.918;73.504;2023-04-15T00:31:11;7.78;;;2.55;;
59486;SDS011;45298;54.918;73.504;2023-04-15T00:33:40;3.78;;;1.92;;
59486;SDS011;45298;54.918;73.504;2023-04-15T00:36:09;4.85;;;1.75;;
59486;SDS011;45298;54.918;73.504;2023-04-15T00:38:38;3.28;;;1.50;;
59486;SDS011;45298;54.918;73.504;2023-04-15T00:41:07;3.30;;;1.73;;
59486;SDS011;45298;54.918;73.504;2023-04-15T00:43:37;3.47;;;1.90;;
59486;SDS011;45298;54.918;73.504;2023-04-15T00:46:06;3.42;;;2.03;;
59486;SDS011;45298;54.918;73.504;2023-04-15T00:48:36;5.05;;;2.20;;
59486;SDS011;45298;54.918;73.504;2023-04-15T00:51:05;3.80;;;1.70;;
59486;SDS011;45298;54.918;73.504;2023-04-15T00:53:34;3.47;;;1.25;;
59486;SDS011;45298;54.918;73.504;2023-04-15T00:56:03;5.50;;;2.53;;
59486;SDS011;45298;54.918;73.504;2023-04-15T00:58:33;6.53;;;2.10;;
59486;SDS011;45298;54.918;73.504;2023-04-15T01:01:02;5.43;;;1.80;;
59486;SDS011;45298;54.918;73.504;2023-04-15T01:03:31;6.90;;;2.92;;
59486;SDS011;45298;54.918;73.504;2023-04-15T01:06:00;5.03;;;2.25;;
59486;SDS011;45298;54.918;73.504;2023-04-15T01:08:31;3.60;;;1.50;;
59486;SDS011;45298;54.918;73.504;2023-04-15T01:11:00;11.50;;;3.33;;
59486;SDS011;45298;54.918;73.504;2023-04-15T01:13:32;6.53;;;2.72;;
59486;SDS011;45298;54.918;73.504;2023-04-15T01:16:05;8.27;;;2.38;;
59486;SDS011;45298;54.918;73.504;2023-04-15T01:18:35;7.93;;;3.00;;
59486;SDS011;45298;54.918;73.504;2023-04-15T01:21:06;7.05;;;2.78;;
59486;SDS011;45298;54.918;73.504;2023-04-15T01:23:37;10.57;;;3.00;;
59486;SDS011;45298;54.918;73.504;2023-04-15T01:26:06;5.70;;;2.60;;
59486;SDS011;45298;54.918;73.504;2023-04-15T01:28:38;9.45;;;1.98;;
59486;SDS011;45298;54.918;73.504;2023-04-15T01:31:12;4.20;;;1.17;;
59486;SDS011;45298;54.918;73.504;2023-04-15T01:33:41;7.03;;;2.08;;
59486;SDS011;45298;54.918;73.504;2023-04-15T01:36:13;6.80;;;2.33;;
59486;SDS011;45298;54.918;73.504;2023-04-15T01:38:42;6.95;;;2.47;;
59486;SDS011;45298;54.918;73.504;2023-04-15T01:41:12;5.95;;;1.60;;
59486;SDS011;45298;54.918;73.504;2023-04-15T01:43:43;9.70;;;3.13;;
59486;SDS011;45298;54.918;73.504;2023-04-15T01:46:12;4.82;;;1.45;;
59486;SDS011;45298;54.918;73.504;2023-04-15T01:48:41;6.72;;;1.58;;
59486;SDS011;45298;54.918;73.504;2023-04-15T01:51:13;3.88;;;1.00;;
59486;SDS011;45298;54.918;73.504;2023-04-15T01:53:41;5.10;;;1.83;;
59486;SDS011;45298;54.918;73.504;2023-04-15T01:56:10;3.63;;;1.98;;
59486;SDS011;45298;54.918;73.504;2023-04-15T01:58:42;3.88;;;1.60;;
59486;SDS011;45298;54.918;73.504;2023-04-15T02:01:11;5.97;;;2.55;;
59486;SDS011;45298;54.918;73.504;2023-04-15T02:03:40;10.15;;;2.80;;
59486;SDS011;45298;54.918;73.504;2023-04-15T02:06:09;8.68;;;3.30;;
59486;SDS011;45298;54.918;73.504;2023-04-15T02:08:38;4.22;;;1.80;;
59486;SDS011;45298;54.918;73.504;2023-04-15T02:11:08;3.15;;;1.25;;
59486;SDS011;45298;54.918;73.504;2023-04-15T02:13:37;3.70;;;1.55;;
59486;SDS011;45298;54.918;73.504;2023-04-15T02:16:16;2.22;;;1.42;;
59486;SDS011;45298;54.918;73.504;2023-04-15T02:18:46;7.75;;;1.88;;
59486;SDS011;45298;54.918;73.504;2023-04-15T02:21:15;9.68;;;3.10;;
59486;SDS011;45298;54.918;73.504;2023-04-15T02:23:43;8.68;;;3.22;;
59486;SDS011;45298;54.918;73.504;2023-04-15T02:26:15;5.03;;;1.88;;
59486;SDS011;45298;54.918;73.504;2023-04-15T02:28:45;3.65;;;1.38;;
59486;SDS011;45298;54.918;73.504;2023-04-15T02:31:15;3.28;;;1.88;;
59486;SDS011;45298;54.918;73.504;2023-04-15T02:33:44;5.03;;;2.15;;
59486;SDS011;45298;54.918;73.504;2023-04-15T02:36:13;9.13;;;3.03;;
59486;SDS011;45298;54.918;73.504;2023-04-15T02:38:43;7.68;;;2.10;;
59486;SDS011;45298;54.918;73.504;2023-04-15T02:41:13;9.90;;;3.42;;
59486;SDS011;45298;54.918;73.504;2023-04-15T02:43:44;15.52;;;4.88;;
59486;SDS011;45298;54.918;73.504;2023-04-15T02:46:13;14.50;;;4.90;;
59486;SDS011;45298;54.918;73.504;2023-04-15T02:48:47;16.60;;;2.30;;
59486;SDS011;45298;54.918;73.504;2023-04-15T02:51:17;8.13;;;2.55;;
59486;SDS011;45298;54.918;73.504;2023-04-15T02:53:50;7.88;;;3.45;;
59486;SDS011;45298;54.918;73.504;2023-04-15T02:56:20;30.92;;;5.22;;
59486;SDS011;45298;54.918;73.504;2023-04-15T02:58:50;18.50;;;6.70;;
59486;SDS011;45298;54.918;73.504;2023-04-15T03:01:23;10.70;;;3.60;;
59486;SDS011;45298;54.918;73.504;2023-04-15T03:03:52;6.05;;;2.97;;
59486;SDS011;45298;54.918;73.504;2023-04-15T03:06:22;10.02;;;2.28;;
59486;SDS011;45298;54.918;73.504;2023-04-15T03:08:51;5.47;;;1.42;;
59486;SDS011;45298;54.918;73.504;2023-04-15T03:11:20;5.40;;;1.45;;
59486;SDS011;45298;54.918;73.504;2023-04-15T03:13:50;1.33;;;0.80;;
59486;SDS011;45298;54.918;73.504;2023-04-15T03:16:30;4.88;;;1.45;;
59486;SDS011;45298;54.918;73.504;2023-04-15T03:18:59;2.85;;;1.08;;
59486;SDS011;45298;54.918;73.504;2023-04-15T03:21:29;2.22;;;1.00;;
59486;SDS011;45298;54.918;73.504;2023-04-15T03:23:58;1.80;;;1.02;;
59486;SDS011;45298;54.918;73.504;2023-04-15T03:26:28;3.10;;;1.48;;
59486;SDS011;45298;54.918;73.504;2023-04-15T03:29:01;4.13;;;1.65;;
59486;SDS011;45298;54.918;73.504;2023-04-15T03:31:30;2.55;;;1.38;;
59486;SDS011;45298;54.918;73.504;2023-04-15T03:34:01;2.78;;;1.40;;
59486;SDS011;45298;54.918;73.504;2023-04-15T03:36:32;4.88;;;1.58;;
59486;SDS011;45298;54.918;73.504;2023-04-15T03:39:01;3.42;;;1.48;;
59486;SDS011;45298;54.918;73.504;2023-04-15T03:41:30;5.60;;;2.13;;
59486;SDS011;45298;54.918;73.504;2023-04-15T03:43:59;2.05;;;0.85;;
59486;SDS011;45298;54.918;73.504;2023-04-15T03:46:28;2.58;;;1.13;;
59486;SDS011;45298;54.918;73.504;2023-04-15T03:48:57;3.03;;;1.15;;
59486;SDS011;45298;54.918;73.504;2023-04-15T03:51:27;3.25;;;1.60;;
59486;SDS011;45298;54.918;73.504;2023-04-15T03:53:55;2.35;;;1.17;;
59486;SDS011;45298;54.918;73.504;2023-04-15T03:56:25;3.85;;;1.40;;
59486;SDS011;45298;54.918;73.504;2023-04-15T03:58:54;3.80;;;1.15;;
59486;SDS011;45298;54.918;73.504;2023-04-15T04:01:23;4.63;;;1.73;;
59486;SDS011;45298;54.918;73.504;2023-04-15T04:03:51;2.88;;;1.13;;
59486;SDS011;45298;54.918;73.504;2023-04-15T04:06:20;8.25;;;1.40;;
59486;SDS011;45298;54.918;73.504;2023-04-15T04:08:49;5.07;;;1.50;;
59486;SDS011;45298;54.918;73.504;2023-04-15T04:11:18;14.43;;;2.22;;
59486;SDS011;45298;54.918;73.504;2023-04-15T04:13:48;3.70;;;1.38;;
59486;SDS011;45298;54.918;73.504;2023-04-15T04:16:16;3.15;;;1.17;;
59486;SDS011;45298;54.918;73.504;2023-04-15T04:18:45;3.60;;;1.10;;
59486;SDS011;45298;54.918;73.504;2023-04-15T04:21:14;2.92;;;1.08;;
59486;SDS011;45298;54.918;73.504;2023-04-15T04:23:43;2.13;;;1.00;;
59486;SDS011;45298;54.918;73.504;2023-04-15T04:26:11;3.75;;;1.45;;
59486;SDS011;45298;54.918;73.504;2023-04-15T04:28:40;3.83;;;1.27;;
59486;SDS011;45298;54.918;73.504;2023-04-15T04:31:09;3.58;;;1.38;;
59486;SDS011;45298;54.918;73.504;2023-04-15T04:33:38;6.90;;;2.28;;
59486;SDS011;45298;54.918;73.504;2023-04-15T04:36:07;6.00;;;2.13;;
59486;SDS011;45298;54.918;73.504;2023-04-15T04:38:35;6.63;;;2.53;;
59486;SDS011;45298;54.918;73.504;2023-04-15T04:41:04;15.70;;;5.07;;
59486;SDS011;45298;54.918;73.504;2023-04-15T04:43:33;17.38;;;4.57;;
59486;SDS011;45298;54.918;73.504;2023-04-15T04:46:01;6.85;;;2.60;;
59486;SDS011;45298;54.918;73.504;2023-04-15T04:48:30;10.18;;;4.13;;
59486;SDS011;45298;54.918;73.504;2023-04-15T04:50:59;9.38;;;3.45;;
59486;SDS011;45298;54.918;73.504;2023-04-15T04:53:28;2.80;;;1.40;;
59486;SDS011;45298;54.918;73.504;2023-04-15T04:55:57;4.13;;;1.48;;
59486;SDS011;45298;54.918;73.504;2023-04-15T04:58:26;4.15;;;1.35;;
59486;SDS011;45298;54.918;73.504;2023-04-15T05:00:55;3.33;;;1.55;;
59486;SDS011;45298;54.918;73.504;2023-04-15T05:03:24;5.80;;;2.42;;
59486;SDS011;45298;54.918;73.504;2023-04-15T05:05:54;4.63;;;2.05;;
59486;SDS011;45298;54.918;73.504;2023-04-15T05:08:23;2.17;;;1.38;;
59486;SDS011;45298;54.918;73.504;2023-04-15T05:10:52;3.70;;;1.90;;
59486;SDS011;45298;54.918;73.504;2023-04-15T05:13:23;3.35;;;1.70;;
59486;SDS011;45298;54.918;73.504;2023-04-15T05:15:52;5.25;;;1.77;;
59486;SDS011;45298;54.918;73.504;2023-04-15T05:18:21;9.43;;;3.60;;
59486;SDS011;45298;54.918;73.504;2023-04-15T05:20:53;3.47;;;1.70;;
59486;SDS011;45298;54.918;73.504;2023-04-15T05:23:21;3.22;;;1.63;;
59486;SDS011;45298;54.918;73.504;2023-04-15T05:25:50;3.47;;;1.80;;
59486;SDS011;45298;54.918;73.504;2023-04-15T05:28:19;4.88;;;1.92;;
59486;SDS011;45298;54.918;73.504;2023-04-15T05:30:49;2.60;;;1.40;;
59486;SDS011;45298;54.918;73.504;2023-04-15T05:33:18;4.32;;;1.48;;
59486;SDS011;45298;54.918;73.504;2023-04-15T05:35:47;4.85;;;2.20;;
59486;SDS011;45298;54.918;73.504;2023-04-15T05:38:16;5.95;;;1.95;;
59486;SDS011;45298;54.918;73.504;2023-04-15T05:40:45;8.77;;;2.58;;
59486;SDS011;45298;54.918;73.504;2023-04-15T05:43:14;3.92;;;2.05;;
59486;SDS011;45298;54.918;73.504;2023-04-15T05:45:43;7.43;;;2.40;;
59486;SDS011;45298;54.918;73.504;2023-04-15T05:48:13;3.22;;;1.67;;
59486;SDS011;45298;54.918;73.504;2023-04-15T05:50:41;2.55;;;0.95;;
59486;SDS011;45298;54.918;73.504;2023-04-15T05:53:10;3.03;;;1.40;;
59486;SDS011;45298;54.918;73.504;2023-04-15T05:55:39;2.65;;;1.10;;
59486;SDS011;45298;54.918;73.504;2023-04-15T05:58:08;2.72;;;1.27;;
59486;SDS011;45298;54.918;73.504;2023-04-15T06:00:38;2.42;;;1.33;;
59486;SDS011;45298;54.918;73.504;2023-04-15T06:03:08;5.03;;;1.88;;
59486;SDS011;45298;54.918;73.504;2023-04-15T06:05:38;3.10;;;1.10;;
59486;SDS011;45298;54.918;73.504;2023-04-15T06:08:07;5.55;;;1.65;;
59486;SDS011;45298;54.918;73.504;2023-04-15T06:10:36;7.32;;;2.80;;
59486;SDS011;45298;54.918;73.504;2023-04-15T06:13:06;5.07;;;1.23;;
59486;SDS011;45298;54.918;73.504;2023-04-15T06:15:35;7.20;;;2.92;;
59486;SDS011;45298;54.918;73.504;2023-04-15T06:18:05;12.70;;;3.58;;
59486;SDS011;45298;54.918;73.504;2023-04-15T06:20:34;6.95;;;2.30;;
59486;SDS011;45298;54.918;73.504;2023-04-15T06:23:03;3.42;;;1.45;;
59486;SDS011;45298;54.918;73.504;2023-04-15T06:25:32;4.45;;;1.95;;
59486;SDS011;45298;54.918;73.504;2023-04-15T06:28:04;4.45;;;1.73;;
59486;SDS011;45298;54.918;73.504;2023-04-15T06:30:33;5.30;;;1.65;;
59486;SDS011;45298;54.918;73.504;2023-04-15T06:33:03;3.42;;;1.63;;
59486;SDS011;45298;54.918;73.504;2023-04-15T06:35:33;4.63;;;1.95;;
59486;SDS011;45298;54.918;73.504;2023-04-15T06:38:02;6.53;;;1.80;;
59486;SDS011;45298;54.918;73.504;2023-04-15T06:40:31;3.05;;;1.40;;
59486;SDS011;45298;54.918;73.504;2023-04-15T06:43:00;7.35;;;2.88;;
59486;SDS011;45298;54.918;73.504;2023-04-15T06:45:31;8.40;;;2.10;;
59486;SDS011;45298;54.918;73.504;2023-04-15T06:48:00;3.45;;;1.60;;
59486;SDS011;45298;54.918;73.504;2023-04-15T06:50:29;3.00;;;1.30;;
59486;SDS011;45298;54.918;73.504;2023-04-15T06:52:58;8.27;;;2.25;;
59486;SDS011;45298;54.918;73.504;2023-04-15T06:55:27;6.85;;;3.00;;
59486;SDS011;45298;54.918;73.504;2023-04-15T06:57:55;6.95;;;2.78;;
59486;SDS011;45298;54.918;73.504;2023-04-15T07:00:27;7.25;;;2.13;;
59486;SDS011;45298;54.918;73.504;2023-04-15T07:02:56;3.90;;;1.50;;
59486;SDS011;45298;54.918;73.504;2023-04-15T07:05:25;6.32;;;2.13;;
59486;SDS011;45298;54.918;73.504;2023-04-15T07:07:54;3.67;;;1.48;;
59486;SDS011;45298;54.918;73.504;2023-04-15T07:10:24;4.35;;;1.90;;
59486;SDS011;45298;54.918;73.504;2023-04-15T07:12:53;14.23;;;4.43;;
59486;SDS011;45298;54.918;73.504;2023-04-15T07:15:22;14.40;;;3.72;;
59486;SDS011;45298;54.918;73.504;2023-04-15T07:17:50;73.88;;;18.40;;
59486;SDS011;45298;54.918;73.504;2023-04-15T07:20:20;1.88;;;1.00;;
59486;SDS011;45298;54.918;73.504;2023-04-15T07:22:49;3.78;;;1.13;;
59486;SDS011;45298;54.918;73.504;2023-04-15T07:25:17;1.73;;;1.10;;
59486;SDS011;45298;54.918;73.504;2023-04-15T07:27:46;6.55;;;1.70;;
59486;SDS011;45298;54.918;73.504;2023-04-15T07:30:15;2.50;;;1.30;;
59486;SDS011;45298;54.918;73.504;2023-04-15T07:32:44;3.63;;;1.60;;
59486;SDS011;45298;54.918;73.504;2023-04-15T07:35:13;3.67;;;1.17;;
59486;SDS011;45298;54.918;73.504;2023-04-15T07:37:42;3.05;;;1.20;;
59486;SDS011;45298;54.918;73.504;2023-04-15T07:40:11;3.22;;;0.98;;
59486;SDS011;45298;54.918;73.504;2023-04-15T07:42:41;4.35;;;1.40;;
59486;SDS011;45298;54.918;73.504;2023-04-15T07:45:10;3.58;;;1.63;;
59486;SDS011;45298;54.918;73.504;2023-04-15T07:47:42;3.63;;;1.40;;
59486;SDS011;45298;54.918;73.504;2023-04-15T07:50:13;4.38;;;1.65;;
59486;SDS011;45298;54.918;73.504;2023-04-15T07:52:43;2.08;;;0.98;;
59486;SDS011;45298;54.918;73.504;2023-04-15T07:55:12;2.78;;;1.20;;
59486;SDS011;45298;54.918;73.504;2023-04-15T07:57:40;2.50;;;1.40;;
59486;SDS011;45298;54.918;73.504;2023-04-15T08:00:09;3.30;;;1.25;;
59486;SDS011;45298;54.918;73.504;2023-04-15T08:02:39;4.25;;;1.40;;
59486;SDS011;45298;54.918;73.504;2023-04-15T08:05:09;3.38;;;1.75;;
59486;SDS011;45298;54.918;73.504;2023-04-15T08:07:38;5.18;;;1.90;;
59486;SDS011;45298;54.918;73.504;2023-04-15T08:10:07;15.40;;;1.45;;
59486;SDS011;45298;54.918;73.504;2023-04-15T08:12:37;6.53;;;3.08;;
59486;SDS011;45298;54.918;73.504;2023-04-15T08:15:06;4.78;;;2.30;;
59486;SDS011;45298;54.918;73.504;2023-04-15T08:17:35;3.83;;;1.95;;
59486;SDS011;45298;54.918;73.504;2023-04-15T08:20:04;4.32;;;1.83;;
59486;SDS011;45298;54.918;73.504;2023-04-15T08:22:33;2.05;;;1.30;;
59486;SDS011;45298;54.918;73.504;2023-04-15T08:25:02;5.55;;;2.55;;
59486;SDS011;45298;54.918;73.504;2023-04-15T08:27:31;5.50;;;2.00;;
59486;SDS011;45298;54.918;73.504;2023-04-15T08:30:00;9.63;;;4.03;;
59486;SDS011;45298;54.918;73.504;2023-04-15T08:32:31;5.22;;;2.15;;
59486;SDS011;45298;54.918;73.504;2023-04-15T08:35:00;4.15;;;1.60;;
59486;SDS011;45298;54.918;73.504;2023-04-15T08:37:29;4.13;;;2.25;;
59486;SDS011;45298;54.918;73.504;2023-04-15T08:39:57;2.78;;;1.35;;
59486;SDS011;45298;54.918;73.504;2023-04-15T08:42:27;12.95;;;5.00;;
59486;SDS011;45298;54.918;73.504;2023-04-15T08:44:59;2.80;;;1.20;;
59486;SDS011;45298;54.918;73.504;2023-04-15T08:47:34;3.83;;;1.40;;
59486;SDS011;45298;54.918;73.504;2023-04-15T08:50:07;4.43;;;1.50;;
59486;SDS011;45298;54.918;73.504;2023-04-15T08:55:09;1.98;;;1.08;;
59486;SDS011;45298;54.918;73.504;2023-04-15T08:57:40;4.25;;;1.50;;
59486;SDS011;45298;54.918;73.504;2023-04-15T09:00:09;2.55;;;1.30;;
59486;SDS011;45298;54.918;73.504;2023-04-15T09:02:39;2.60;;;1.42;;
59486;SDS011;45298;54.918;73.504;2023-04-15T09:05:09;2.40;;;1.38;;
59486;SDS011;45298;54.918;73.504;2023-04-15T09:07:41;2.22;;;1.38;;
59486;SDS011;45298;54.918;73.504;2023-04-15T09:10:10;2.00;;;1.05;;
59486;SDS011;45298;54.918;73.504;2023-04-15T09:12:39;2.72;;;1.48;;
59486;SDS011;45298;54.918;73.504;2023-04-15T09:15:09;6.10;;;2.47;;
59486;SDS011;45298;54.918;73.504;2023-04-15T09:17:43;3.08;;;1.40;;
59486;SDS011;45298;54.918;73.504;2023-04-15T09:20:16;3.88;;;1.80;;
59486;SDS011;45298;54.918;73.504;2023-04-15T09:22:48;2.92;;;1.05;;
59486;SDS011;45298;54.918;73.504;2023-04-15T09:25:24;3.58;;;1.60;;
59486;SDS011;45298;54.918;73.504;2023-04-15T09:28:00;5.97;;;1.55;;
59486;SDS011;45298;54.918;73.504;2023-04-15T09:30:31;2.78;;;1.25;;
59486;SDS011;45298;54.918;73.504;2023-04-15T09:33:00;3.55;;;1.58;;
59486;SDS011;45298;54.918;73.504;2023-04-15T09:35:31;5.03;;;1.52;;
59486;SDS011;45298;54.918;73.504;2023-04-15T09:38:04;3.45;;;1.50;;
59486;SDS011;45298;54.918;73.504;2023-04-15T09:40:36;3.78;;;1.58;;
59486;SDS011;45298;54.918;73.504;2023-04-15T09:43:09;4.07;;;1.20;;
59486;SDS011;45298;54.918;73.504;2023-04-15T09:45:46;2.08;;;1.17;;
59486;SDS011;45298;54.918;73.504;2023-04-15T09:48:19;2.63;;;1.10;;
59486;SDS011;45298;54.918;73.504;2023-04-15T09:50:56;4.63;;;2.25;;
59486;SDS011;45298;54.918;73.504;2023-04-15T09:53:27;3.17;;;1.50;;
59486;SDS011;45298;54.918;73.504;2023-04-15T09:55:58;2.40;;;1.20;;
59486;SDS011;45298;54.918;73.504;2023-04-15T09:58:30;5.60;;;2.35;;
59486;SDS011;45298;54.918;73.504;2023-04-15T10:01:02;3.85;;;1.65;;
59486;SDS011;45298;54.918;73.504;2023-04-15T10:03:33;3.58;;;1.42;;
59486;SDS011;45298;54.918;73.504;2023-04-15T10:06:05;2.97;;;1.30;;
59486;SDS011;45298;54.918;73.504;2023-04-15T10:08:37;3.03;;;1.10;;
59486;SDS011;45298;54.918;73.504;2023-04-15T10:11:06;2.35;;;1.00;;
59486;SDS011;45298;54.918;73.504;2023-04-15T10:13:35;2.38;;;1.10;;
59486;SDS011;45298;54.918;73.504;2023-04-15T10:16:06;2.80;;;0.98;;
59486;SDS011;45298;54.918;73.504;2023-04-15T10:18:41;3.78;;;1.10;;
59486;SDS011;45298;54.918;73.504;2023-04-15T10:21:12;3.92;;;1.50;;
59486;SDS011;45298;54.918;73.504;2023-04-15T10:23:45;6.20;;;1.98;;
59486;SDS011;45298;54.918;73.504;2023-04-15T10:26:15;5.07;;;1.50;;
59486;SDS011;45298;54.918;73.504;2023-04-15T10:28:44;2.83;;;1.13;;
59486;SDS011;45298;54.918;73.504;2023-04-15T10:31:16;7.15;;;2.78;;
59486;SDS011;45298;54.918;73.504;2023-04-15T10:33:47;6.25;;;2.72;;
59486;SDS011;45298;54.918;73.504;2023-04-15T10:36:17;2.15;;;1.30;;
59486;SDS011;45298;54.918;73.504;2023-04-15T10:38:47;4.43;;;1.60;;
59486;SDS011;45298;54.918;73.504;2023-04-15T10:41:20;2.00;;;0.90;;
59486;SDS011;45298;54.918;73.504;2023-04-15T10:43:54;3.85;;;1.20;;
59486;SDS011;45298;54.918;73.504;2023-04-15T10:46:37;4.28;;;1.45;;
59486;SDS011;45298;54.918;73.504;2023-04-15T10:51:44;5.88;;;2.78;;
59486;SDS011;45298;54.918;73.504;2023-04-15T10:59:37;2.67;;;1.30;;
59486;SDS011;45298;54.918;73.504;2023-04-15T11:08:10;8.00;;;2.60;;
59486;SDS011;45298;54.918;73.504;2023-04-15T11:15:39;3.28;;;1.63;;
59486;SDS011;45298;54.918;73.504;2023-04-15T11:18:13;5.22;;;1.70;;
59486;SDS011;45298;54.918;73.504;2023-04-15T11:21:08;10.73;;;3.67;;
59486;SDS011;45298;54.918;73.504;2023-04-15T11:23:38;3.67;;;1.65;;
59486;SDS011;45298;54.918;73.504;2023-04-15T11:26:11;3.60;;;1.70;;
59486;SDS011;45298;54.918;73.504;2023-04-15T11:28:43;5.10;;;1.95;;
59486;SDS011;45298;54.918;73.504;2023-04-15T11:31:13;2.40;;;1.10;;
59486;SDS011;45298;54.918;73.504;2023-04-15T11:33:53;5.95;;;2.42;;
59486;SDS011;45298;54.918;73.504;2023-04-15T11:36:27;4.65;;;1.48;;
59486;SDS011;45298;54.918;73.504;2023-04-15T11:38:58;5.30;;;1.83;;
59486;SDS011;45298;54.918;73.504;2023-04-15T11:41:28;7.40;;;2.65;;
59486;SDS011;45298;54.918;73.504;2023-04-15T11:43:56;44.45;;;11.57;;
59486;SDS011;45298;54.918;73.504;2023-04-15T11:46:29;51.13;;;11.60;;
59486;SDS011;45298;54.918;73.504;2023-04-15T11:48:58;10.07;;;2.95;;
59486;SDS011;45298;54.918;73.504;2023-04-15T11:51:30;6.07;;;2.30;;
59486;SDS011;45298;54.918;73.504;2023-04-15T11:54:01;18.13;;;5.18;;
59486;SDS011;45298;54.918;73.504;2023-04-15T11:56:30;19.83;;;7.05;;
59486;SDS011;45298;54.918;73.504;2023-04-15T11:58:59;4.65;;;2.03;;
59486;SDS011;45298;54.918;73.504;2023-04-15T12:01:32;4.50;;;1.55;;
59486;SDS011;45298;54.918;73.504;2023-04-15T12:04:14;6.75;;;1.60;;
59486;SDS011;45298;54.918;73.504;2023-04-15T12:06:52;3.22;;;1.30;;
59486;SDS011;45298;54.918;73.504;2023-04-15T12:09:21;6.72;;;2.05;;
59486;SDS011;45298;54.918;73.504;2023-04-15T12:11:50;2.95;;;1.20;;
59486;SDS011;45298;54.918;73.504;2023-04-15T12:16:59;6.32;;;1.67;;
59486;SDS011;45298;54.918;73.504;2023-04-15T12:19:35;10.68;;;3.80;;
59486;SDS011;45298;54.918;73.504;2023-04-15T12:22:07;10.40;;;3.83;;
59486;SDS011;45298;54.918;73.504;2023-04-15T12:24:37;17.73;;;4.97;;
59486;SDS011;45298;54.918;73.504;2023-04-15T12:27:08;13.57;;;4.38;;
59486;SDS011;45298;54.918;73.504;2023-04-15T12:29:39;11.73;;;3.38;;
59486;SDS011;45298;54.918;73.504;2023-04-15T12:32:12;4.40;;;2.00;;
59486;SDS011;45298;54.918;73.504;2023-04-15T12:34:44;5.45;;;2.40;;
59486;SDS011;45298;54.918;73.504;2023-04-15T12:37:17;10.38;;;3.22;;
59486;SDS011;45298;54.918;73.504;2023-04-15T12:39:47;19.52;;;4.38;;
59486;SDS011;45298;54.918;73.504;2023-04-15T12:42:17;19.67;;;4.07;;
59486;SDS011;45298;54.918;73.504;2023-04-15T12:44:46;6.20;;;2.20;;
59486;SDS011;45298;54.918;73.504;2023-04-15T12:47:15;8.95;;;3.20;;
59486;SDS011;45298;54.918;73.504;2023-04-15T12:49:44;14.25;;;4.60;;
59486;SDS011;45298;54.918;73.504;2023-04-15T12:52:12;9.55;;;2.65;;
59486;SDS011;45298;54.918;73.504;2023-04-15T12:54:44;6.03;;;2.47;;
59486;SDS011;45298;54.918;73.504;2023-04-15T12:57:13;7.03;;;2.72;;
59486;SDS011;45298;54.918;73.504;2023-04-15T12:59:42;9.15;;;3.47;;
59486;SDS011;45298;54.918;73.504;2023-04-15T13:02:11;15.27;;;5.18;;
59486;SDS011;45298;54.918;73.504;2023-04-15T13:04:40;11.25;;;3.33;;
59486;SDS011;45298;54.918;73.504;2023-04-15T13:07:09;18.63;;;6.22;;
59486;SDS011;45298;54.918;73.504;2023-04-15T13:09:40;14.63;;;6.00;;
59486;SDS011;45298;54.918;73.504;2023-04-15T13:12:09;10.32;;;4.35;;
59486;SDS011;45298;54.918;73.504;2023-04-15T13:14:40;7.50;;;3.03;;
59486;SDS011;45298;54.918;73.504;2023-04-15T13:17:09;9.15;;;4.28;;
59486;SDS011;45298;54.918;73.504;2023-04-15T13:19:38;3.95;;;1.90;;
59486;SDS011;45298;54.918;73.504;2023-04-15T13:22:07;6.35;;;2.40;;
59486;SDS011;45298;54.918;73.504;2023-04-15T13:24:36;7.50;;;2.50;;
59486;SDS011;45298;54.918;73.504;2023-04-15T13:27:06;9.23;;;2.95;;
59486;SDS011;45298;54.918;73.504;2023-04-15T13:29:35;10.90;;;3.63;;
59486;SDS011;45298;54.918;73.504;2023-04-15T13:32:05;13.57;;;4.22;;
59486;SDS011;45298;54.918;73.504;2023-04-15T13:34:34;11.57;;;4.25;;
59486;SDS011;45298;54.918;73.504;2023-04-15T13:37:06;13.60;;;4.13;;
59486;SDS011;45298;54.918;73.504;2023-04-15T13:39:36;24.42;;;7.60;;
59486;SDS011;45298;54.918;73.504;2023-04-15T13:42:07;30.30;;;8.85;;
59486;SDS011;45298;54.918;73.504;2023-04-15T13:44:36;40.70;;;12.05;;
59486;SDS011;45298;54.918;73.504;2023-04-15T13:47:05;24.92;;;9.38;;
59486;SDS011;45298;54.918;73.504;2023-04-15T13:49:34;31.17;;;10.50;;
59486;SDS011;45298;54.918;73.504;2023-04-15T13:52:03;27.55;;;9.15;;
59486;SDS011;45298;54.918;73.504;2023-04-15T13:54:32;20.27;;;7.43;;
59486;SDS011;45298;54.918;73.504;2023-04-15T13:57:04;25.85;;;10.48;;
59486;SDS011;45298;54.918;73.504;2023-04-15T13:59:34;28.48;;;11.77;;
59486;SDS011;45298;54.918;73.504;2023-04-15T14:02:03;27.98;;;10.13;;
59486;SDS011;45298;54.918;73.504;2023-04-15T14:04:32;35.80;;;13.68;;
59486;SDS011;45298;54.918;73.504;2023-04-15T14:07:03;46.33;;;17.98;;
59486;SDS011;45298;54.918;73.504;2023-04-15T14:09:33;44.90;;;16.45;;
59486;SDS011;45298;54.918;73.504;2023-04-15T14:12:02;84.72;;;31.80;;
59486;SDS011;45298;54.918;73.504;2023-04-15T14:14:31;45.17;;;19.60;;
59486;SDS011;45298;54.918;73.504;2023-04-15T14:17:01;18.08;;;7.78;;
59486;SDS011;45298;54.918;73.504;2023-04-15T14:19:34;21.35;;;9.02;;
59486;SDS011;45298;54.918;73.504;2023-04-15T14:22:03;26.10;;;10.77;;
59486;SDS011;45298;54.918;73.504;2023-04-15T14:24:31;21.00;;;8.80;;
59486;SDS011;45298;54.918;73.504;2023-04-15T14:27:00;22.90;;;8.25;;
59486;SDS011;45298;54.918;73.504;2023-04-15T14:29:30;21.38;;;9.40;;
59486;SDS011;45298;54.918;73.504;2023-04-15T14:31:59;32.33;;;11.55;;
59486;SDS011;45298;54.918;73.504;2023-04-15T14:34:38;28.08;;;10.93;;
59486;SDS011;45298;54.918;73.504;2023-04-15T14:37:07;40.33;;;14.15;;
59486;SDS011;45298;54.918;73.504;2023-04-15T14:39:36;57.15;;;16.65;;
59486;SDS011;45298;54.918;73.504;2023-04-15T14:42:05;49.40;;;16.30;;
59486;SDS011;45298;54.918;73.504;2023-04-15T14:44:34;40.95;;;15.85;;
59486;SDS011;45298;54.918;73.504;2023-04-15T14:47:03;36.05;;;12.18;;
59486;SDS011;45298;54.918;73.504;2023-04-15T14:49:32;39.00;;;13.50;;
59486;SDS011;45298;54.918;73.504;2023-04-15T14:52:01;38.13;;;13.32;;
59486;SDS011;45298;54.918;73.504;2023-04-15T14:54:30;40.97;;;12.20;;
59486;SDS011;45298;54.918;73.504;2023-04-15T14:56:59;40.47;;;14.63;;
59486;SDS011;45298;54.918;73.504;2023-04-15T14:59:29;65.03;;;21.90;;
59486;SDS011;45298;54.918;73.504;2023-04-15T15:01:58;69.00;;;23.88;;
59486;SDS011;45298;54.918;73.504;2023-04-15T15:04:27;80.50;;;27.10;;
59486;SDS011;45298;54.918;73.504;2023-04-15T15:06:59;90.80;;;27.33;;
59486;SDS011;45298;54.918;73.504;2023-04-15T15:09:28;91.78;;;30.63;;
59486;SDS011;45298;54.918;73.504;2023-04-15T15:11:57;100.63;;;31.92;;